Airfield :
LOGIN :

Register | Disclaimer

   EN    FR    IT 

 










Legend :    VFR   Marginal VFR   IFR   Intensive IFR   Very Intensive IFR
Visi :
Ceiling :
>= 8 km
>= 3000ft
5 to 8 km
1000 to 3000 ft
1500m to 5 km
500 to 1000 ft
800 to 1500m
200 to 500 ft
< 800m
< 200 ft
Symbols :   Thunderstorms  Fog  Heavy snow  Heavy precipitations  Wind > 20 kt
SIGMETs :     Misc.  Thunderstorms  Icing  Turbulence  Mountain Waves  Volcanic Ashes






- Airport Elevation : 453 ft
- IATA code : SBK


LFRT - St Brieuc Armor

CURRENT METAR :
  • 121330Z AUTO 28016KT 9999 BKN016 BKN022 11/10 Q0988

EXPIRED METARs :
  • 121300Z AUTO 26010KT 9999 -RA FEW006/// SCT022/// BKN027/// ///TCU 11/10 Q0988
  • 121230Z AUTO 25013KT 160V310 6000 2900 +RA SCT011/// BKN027/// BKN037/// ///CB 10/09 Q0988
  • 121200Z AUTO 19013KT 140V210 9999 -RA FEW016/// BKN060/// OVC070/// ///TCU 10/09 Q0988
  • 121130Z AUTO 19011KT 160V240 9999 RA FEW026/// OVC060/// ///CB 09/08 Q0989
  • 121100Z AUTO 21010KT 170V250 9999 -RA FEW014/// OVC064/// ///CB 09/08 Q0991

Expired Forecast.



MET'MAP, your aeronautical weather chart ! - Copyright ORBIFLY December 2007 - Disclaimer

ORBIFLY MET'MAP TEAM :

Programming & Development : Alexandra Zaïnal
Concept & original design : Baudouin d'Aumeries
Assistance for programming : Marc-Olivier Méhu
Technical & hardware support : Manuel Goepfert

Contact : metmap@orbifly.com




SOURCES & CREDITS :

   NOAA